Widecreek, Kentucky
Current Conditions -  °F | °C
As of 11:53 AM on Thursday 27 Nov 2014 (Local Time) from KJKL Reporting Station
Overcast Overcast  
Wind Chill: 25°   Ceiling: 1900
Heat Index: 32°   Visibility: 9mi
Dew Point: 24°   Wind: 8mph
Humidity: 73%   Direction: 300°WNW
Pressure: 30.24"   Gusts: NA
Location:  37.5908°N, 83.7186°W
Report Text: KJKL 271653Z AUTO 30007KT 270V340 9SM OVC019 00/M04 A3024 RMK AO2 SLP248 T00001044
Loading
Personal Weather Stations






























Interactive Weather Map New forecast layout! Learn more

10-Day Weather Forecast

Advertisements
Track Severe Weather on mobile